createdAt,value
2023-02-03T00:00:39.853Z,1.77
2023-02-03T00:03:07.896Z,2.30
2023-02-03T00:05:36.702Z,2.30
2023-02-03T00:08:05.976Z,1.70
2023-02-03T00:10:35.292Z,1.93
2023-02-03T00:13:04.519Z,1.67
2023-02-03T00:15:32.324Z,1.83
2023-02-03T00:18:00.062Z,2.07
2023-02-03T00:20:28.187Z,2.60
2023-02-03T00:22:56.053Z,2.40
2023-02-03T00:25:23.901Z,2.67
2023-02-03T00:27:51.662Z,2.50
2023-02-03T00:30:20.985Z,2.50
2023-02-03T00:32:48.734Z,2.37
2023-02-03T00:35:16.483Z,2.77
2023-02-03T00:37:44.177Z,2.47
2023-02-03T00:40:13.908Z,3.17
2023-02-03T00:42:41.648Z,3.03
2023-02-03T00:45:10.265Z,2.90
2023-02-03T00:47:39.725Z,2.50
2023-02-03T00:50:08.415Z,3.00
2023-02-03T00:52:36.242Z,2.90
2023-02-03T00:55:04.221Z,2.33
2023-02-03T00:57:31.963Z,2.53
2023-02-03T00:59:59.696Z,3.30
2023-02-03T01:02:27.555Z,2.43
2023-02-03T01:04:56.657Z,2.60
2023-02-03T01:07:24.397Z,2.43
2023-02-03T01:09:52.180Z,1.80
2023-02-03T01:12:20.315Z,1.90
2023-02-03T01:14:48.084Z,1.73
2023-02-03T01:17:15.826Z,2.33
2023-02-03T01:19:43.573Z,2.30
2023-02-03T01:22:12.688Z,2.83
2023-02-03T01:24:40.400Z,2.27
2023-02-03T01:27:08.189Z,2.40
2023-02-03T01:29:36.012Z,2.70
2023-02-03T01:32:04.419Z,2.30
2023-02-03T01:34:32.268Z,2.47
2023-02-03T01:37:00.017Z,1.97
2023-02-03T01:39:29.105Z,1.67
2023-02-03T01:41:57.624Z,2.30
2023-02-03T01:44:51.368Z,1.73
2023-02-03T01:47:32.605Z,1.87
2023-02-03T01:50:15.909Z,2.00
2023-02-03T01:52:46.558Z,1.70
2023-02-03T01:55:20.443Z,1.67
2023-02-03T01:57:52.725Z,2.23
2023-02-03T02:00:20.998Z,2.10
2023-02-03T02:02:51.153Z,2.37
2023-02-03T02:05:23.734Z,2.10
2023-02-03T02:07:52.585Z,1.50
2023-02-03T02:10:21.907Z,2.23
2023-02-03T02:12:49.816Z,1.83
2023-02-03T02:15:18.168Z,1.87
2023-02-03T02:17:59.452Z,1.70
2023-02-03T02:20:53.736Z,1.70
2023-02-03T02:24:13.265Z,1.73
2023-02-03T02:26:52.141Z,1.73
2023-02-03T02:30:02.883Z,1.50
2023-02-03T02:32:51.524Z,1.23
2023-02-03T02:35:29.071Z,1.20
2023-02-03T02:38:02.939Z,1.57
2023-02-03T02:40:37.145Z,0.93
2023-02-03T02:43:10.531Z,1.43
2023-02-03T02:45:46.822Z,1.23
2023-02-03T02:48:20.875Z,1.33
2023-02-03T02:50:52.991Z,1.17
2023-02-03T02:53:25.184Z,1.63
2023-02-03T02:55:54.587Z,1.60
2023-02-03T02:58:23.494Z,1.70
2023-02-03T03:00:51.880Z,2.00
2023-02-03T03:03:23.319Z,1.77
2023-02-03T03:05:55.140Z,1.73
2023-02-03T03:08:27.893Z,2.10
2023-02-03T03:10:58.119Z,2.13
2023-02-03T03:13:31.021Z,1.60
2023-02-03T03:16:00.944Z,2.43
2023-02-03T03:18:34.348Z,2.30
2023-02-03T03:21:06.416Z,2.23
2023-02-03T03:23:39.546Z,3.00
2023-02-03T03:26:13.682Z,2.17
2023-02-03T03:28:48.092Z,2.57
2023-02-03T03:31:17.193Z,2.40
2023-02-03T03:33:47.583Z,2.47
2023-02-03T03:36:23.466Z,3.20
2023-02-03T03:38:57.056Z,2.80
2023-02-03T03:41:33.505Z,3.33
2023-02-03T03:44:05.283Z,3.47
2023-02-03T03:46:39.189Z,3.07
2023-02-03T03:49:11.822Z,3.43
2023-02-03T03:51:45.418Z,4.33
2023-02-03T03:54:16.824Z,4.70
2023-02-03T03:56:50.529Z,3.50
2023-02-03T03:59:22.586Z,4.43
2023-02-03T04:01:52.039Z,4.73
2023-02-03T04:04:22.810Z,4.53
2023-02-03T04:06:50.513Z,5.07
2023-02-03T04:09:18.217Z,5.47
2023-02-03T04:12:06.041Z,5.30
2023-02-03T04:14:35.743Z,4.50
2023-02-03T04:17:03.794Z,5.97
2023-02-03T04:19:33.163Z,6.67
2023-02-03T04:22:00.925Z,5.33
2023-02-03T04:24:28.673Z,4.97
2023-02-03T04:26:56.526Z,5.80
2023-02-03T04:29:24.255Z,4.83
2023-02-03T04:31:52.010Z,6.27
2023-02-03T04:34:19.719Z,4.47
2023-02-03T04:36:48.839Z,6.00
2023-02-03T04:39:16.563Z,3.83
2023-02-03T04:41:44.313Z,4.77
2023-02-03T04:44:12.037Z,2.67
2023-02-03T04:46:39.746Z,4.10
2023-02-03T04:49:07.665Z,3.50
2023-02-03T04:51:35.366Z,3.40
2023-02-03T04:54:04.687Z,3.37
2023-02-03T04:56:32.388Z,3.23
2023-02-03T04:59:00.146Z,3.43
2023-02-03T05:01:27.989Z,2.83
2023-02-03T05:03:55.752Z,2.93
2023-02-03T05:06:25.676Z,2.20
2023-02-03T05:08:53.576Z,3.40
2023-02-03T05:11:23.220Z,2.60
2023-02-03T05:13:50.989Z,3.13
2023-02-03T05:16:18.759Z,2.90
2023-02-03T05:18:46.652Z,2.43
2023-02-03T05:21:14.527Z,3.20
2023-02-03T05:23:42.258Z,2.20
2023-02-03T05:26:10.065Z,2.37
2023-02-03T05:28:39.527Z,2.27
2023-02-03T05:31:07.309Z,2.33
2023-02-03T05:33:35.140Z,2.10
2023-02-03T05:36:02.946Z,1.80
2023-02-03T05:38:30.709Z,2.50
2023-02-03T05:41:15.964Z,3.13
2023-02-03T05:43:45.058Z,2.30
2023-02-03T05:46:12.904Z,2.27
2023-02-03T05:48:40.691Z,2.93
2023-02-03T05:51:08.415Z,2.20
2023-02-03T05:53:36.150Z,1.77
2023-02-03T05:56:03.870Z,2.83
2023-02-03T05:58:31.594Z,2.87
2023-02-03T06:01:00.664Z,2.00
2023-02-03T06:03:28.461Z,1.60
2023-02-03T06:05:56.208Z,2.57
2023-02-03T06:08:28.450Z,2.63
2023-02-03T06:10:59.782Z,2.13
2023-02-03T06:13:28.378Z,2.40
2023-02-03T06:15:56.215Z,1.77
2023-02-03T06:18:25.473Z,1.00
2023-02-03T06:20:53.217Z,1.30
2023-02-03T06:23:20.980Z,1.67
2023-02-03T06:25:49.407Z,1.00
2023-02-03T06:28:17.357Z,1.30
2023-02-03T06:30:45.551Z,1.43
2023-02-03T06:33:13.340Z,1.20
2023-02-03T06:35:42.443Z,1.37
2023-02-03T06:38:10.187Z,1.20
2023-02-03T06:40:38.032Z,0.90
2023-02-03T06:43:05.989Z,1.83
2023-02-03T06:45:34.548Z,1.70
2023-02-03T06:48:02.298Z,1.77
2023-02-03T06:50:30.316Z,2.13
2023-02-03T06:52:59.509Z,1.20
2023-02-03T06:55:27.299Z,1.33
2023-02-03T06:57:55.067Z,1.83
2023-02-03T07:00:24.354Z,1.40
2023-02-03T07:02:55.071Z,1.23
2023-02-03T07:05:23.332Z,1.77
2023-02-03T07:07:51.503Z,1.40
2023-02-03T07:10:21.095Z,1.33
2023-02-03T07:12:50.689Z,1.37
2023-02-03T07:15:18.891Z,1.73
2023-02-03T07:17:54.416Z,1.80
2023-02-03T07:20:23.332Z,1.97
2023-02-03T07:22:55.723Z,1.20
2023-02-03T07:25:26.405Z,1.00
2023-02-03T07:27:54.618Z,1.30
2023-02-03T07:30:22.753Z,1.13
2023-02-03T07:32:51.522Z,0.90
2023-02-03T07:35:19.842Z,1.70
2023-02-03T07:37:47.676Z,1.60
2023-02-03T07:40:16.086Z,1.40
2023-02-03T07:42:46.149Z,0.87
2023-02-03T07:45:15.454Z,1.27
2023-02-03T07:47:44.390Z,1.63
2023-02-03T07:50:13.056Z,1.00
2023-02-03T07:52:40.987Z,1.80
2023-02-03T07:55:09.385Z,1.10
2023-02-03T07:57:37.327Z,1.70
2023-02-03T08:00:07.310Z,1.27
2023-02-03T08:02:35.005Z,1.30
2023-02-03T08:05:02.756Z,1.20
2023-02-03T08:07:30.498Z,0.57
2023-02-03T08:09:58.203Z,1.30
2023-02-03T08:12:25.971Z,0.93
2023-02-03T08:14:53.807Z,1.07
2023-02-03T08:17:23.477Z,1.40
2023-02-03T08:19:51.223Z,1.27
2023-02-03T08:22:19.350Z,1.30
2023-02-03T08:24:48.208Z,1.20
2023-02-03T08:27:17.409Z,1.10
2023-02-03T08:29:46.080Z,1.67
2023-02-03T08:32:15.673Z,2.47
2023-02-03T08:34:45.187Z,2.37
2023-02-03T08:37:13.818Z,2.13
2023-02-03T08:39:41.743Z,2.07
2023-02-03T08:42:09.799Z,1.90
2023-02-03T08:44:39.035Z,2.67
2023-02-03T08:47:07.248Z,2.17
2023-02-03T08:49:35.761Z,2.47
2023-02-03T08:52:05.101Z,2.03
2023-02-03T08:54:32.926Z,2.13
2023-02-03T08:57:00.987Z,2.30
2023-02-03T08:59:29.208Z,3.00
2023-02-03T09:01:59.786Z,3.00
2023-02-03T09:04:27.524Z,2.97
2023-02-03T09:06:55.849Z,3.40
2023-02-03T09:09:26.537Z,3.17
2023-02-03T09:11:56.997Z,3.13
2023-02-03T09:14:26.643Z,4.17
2023-02-03T09:16:54.369Z,3.63
2023-02-03T09:19:22.129Z,4.93
2023-02-03T09:21:50.718Z,4.57
2023-02-03T09:24:19.450Z,5.20
2023-02-03T09:26:48.553Z,4.37
2023-02-03T09:29:16.291Z,3.63
2023-02-03T09:31:44.161Z,4.13
2023-02-03T09:34:11.925Z,4.40
2023-02-03T09:36:41.284Z,3.37
2023-02-03T09:39:09.690Z,2.57
2023-02-03T09:41:52.718Z,4.83
2023-02-03T09:44:27.478Z,5.67
2023-02-03T09:46:57.945Z,4.53
2023-02-03T09:49:28.585Z,3.97
2023-02-03T09:52:02.508Z,4.80
2023-02-03T09:54:39.791Z,3.80
2023-02-03T09:57:19.035Z,4.50
2023-02-03T09:59:46.902Z,4.20
2023-02-03T10:02:40.001Z,3.83
2023-02-03T10:05:19.150Z,5.43
2023-02-03T10:07:57.870Z,4.77
2023-02-03T10:10:37.304Z,4.63
2023-02-03T10:13:18.223Z,5.10
2023-02-03T10:16:00.117Z,5.77
2023-02-03T10:18:33.160Z,3.80
2023-02-03T10:21:04.749Z,4.70
2023-02-03T10:23:36.267Z,5.50
2023-02-03T10:26:08.218Z,4.20
2023-02-03T10:28:41.548Z,4.20
2023-02-03T10:31:18.785Z,4.47
2023-02-03T10:33:48.290Z,4.70
2023-02-03T10:36:21.045Z,3.40
2023-02-03T10:38:57.514Z,3.80
2023-02-03T10:41:25.943Z,4.63
2023-02-03T10:43:57.380Z,4.87
2023-02-03T10:46:30.049Z,3.87
2023-02-03T10:48:58.203Z,3.63
2023-02-03T10:51:28.781Z,3.63
2023-02-03T10:53:56.821Z,4.30
2023-02-03T10:56:27.570Z,3.33
2023-02-03T10:58:58.545Z,3.13
2023-02-03T11:01:29.212Z,2.80
2023-02-03T11:04:03.209Z,4.13
2023-02-03T11:06:31.942Z,3.00
2023-02-03T11:09:00.122Z,3.03
2023-02-03T11:11:31.556Z,3.37
2023-02-03T11:14:17.957Z,2.53
2023-02-03T11:16:47.329Z,3.27
2023-02-03T11:19:19.311Z,2.77
2023-02-03T11:21:49.987Z,2.93
2023-02-03T11:24:21.773Z,2.53
2023-02-03T11:26:55.083Z,2.70
2023-02-03T11:29:28.337Z,3.63
2023-02-03T11:31:58.620Z,2.90
2023-02-03T11:34:29.864Z,2.10
2023-02-03T11:36:57.909Z,3.30
2023-02-03T11:39:29.017Z,2.90
2023-02-03T11:41:57.617Z,3.73
2023-02-03T11:44:31.108Z,3.83
2023-02-03T11:47:03.261Z,4.37
2023-02-03T11:50:06.290Z,3.47
2023-02-03T11:53:00.162Z,4.00
2023-02-03T11:55:41.926Z,4.60
2023-02-03T11:58:35.677Z,3.67
2023-02-03T12:01:12.471Z,3.97
2023-02-03T12:04:15.004Z,3.87
2023-02-03T12:07:12.431Z,3.80
2023-02-03T12:09:51.204Z,4.70
2023-02-03T12:12:46.009Z,3.70
2023-02-03T12:15:33.958Z,4.97
2023-02-03T12:18:13.602Z,4.10
2023-02-03T12:20:51.600Z,4.27
2023-02-03T12:23:31.876Z,4.70
2023-02-03T12:26:15.961Z,3.40
2023-02-03T12:28:49.919Z,4.90
2023-02-03T12:31:29.483Z,4.40
2023-02-03T12:34:05.711Z,4.27
2023-02-03T12:36:39.620Z,4.43
2023-02-03T12:39:13.633Z,4.50
2023-02-03T12:41:47.336Z,4.43
2023-02-03T12:44:21.787Z,3.77
2023-02-03T12:46:56.447Z,3.30
2023-02-03T12:49:36.296Z,4.40
2023-02-03T12:52:10.667Z,4.33
2023-02-03T12:54:46.493Z,5.23
2023-02-03T12:57:21.651Z,3.53
2023-02-03T12:59:59.739Z,5.27
2023-02-03T13:02:31.060Z,3.23
2023-02-03T13:05:06.768Z,4.03
2023-02-03T13:07:40.213Z,3.23
2023-02-03T13:10:19.544Z,3.97
2023-02-03T13:12:50.989Z,4.07
2023-02-03T13:15:24.738Z,4.97
2023-02-03T13:17:58.071Z,3.83
2023-02-03T13:20:31.342Z,4.30
2023-02-03T13:22:59.495Z,4.00
2023-02-03T13:25:33.495Z,5.07
2023-02-03T13:28:12.929Z,4.83
2023-02-03T13:30:56.798Z,5.13
2023-02-03T13:33:52.129Z,4.73
2023-02-03T13:36:54.313Z,5.20
2023-02-03T13:39:35.097Z,6.57
2023-02-03T13:42:19.339Z,3.60
2023-02-03T13:44:51.579Z,4.30
2023-02-03T13:47:24.058Z,3.60
2023-02-03T13:49:57.172Z,5.27
2023-02-03T13:52:30.021Z,5.03
2023-02-03T13:54:58.883Z,3.50
2023-02-03T13:57:35.476Z,4.87
2023-02-03T14:00:05.286Z,5.03
2023-02-03T14:02:54.149Z,3.90
2023-02-03T14:05:43.816Z,5.20
2023-02-03T14:08:53.072Z,3.77
2023-02-03T14:11:42.329Z,4.93
2023-02-03T14:14:45.416Z,4.27
2023-02-03T14:17:50.196Z,3.90
2023-02-03T14:20:43.151Z,4.63
2023-02-03T14:23:17.662Z,3.87
2023-02-03T14:25:49.469Z,4.20
2023-02-03T14:28:21.319Z,5.27
2023-02-03T14:31:12.655Z,5.10
2023-02-03T14:33:57.404Z,5.40
2023-02-03T14:36:39.176Z,4.03
2023-02-03T14:39:37.198Z,5.17
2023-02-03T14:42:12.497Z,4.60
2023-02-03T14:44:54.299Z,3.87
2023-02-03T14:47:34.957Z,4.17
2023-02-03T14:50:14.407Z,5.03
2023-02-03T14:53:01.894Z,3.20
2023-02-03T14:55:45.319Z,4.67
2023-02-03T14:58:27.439Z,4.47
2023-02-03T15:00:56.619Z,3.53
2023-02-03T15:03:27.740Z,4.50
2023-02-03T15:05:57.426Z,5.47
2023-02-03T15:08:44.284Z,4.83
2023-02-03T15:11:31.594Z,3.80
2023-02-03T15:14:19.342Z,4.30
2023-02-03T15:16:51.948Z,3.87
2023-02-03T15:19:22.210Z,4.33
2023-02-03T15:21:50.325Z,4.70
2023-02-03T15:24:23.061Z,5.07
2023-02-03T15:26:52.958Z,2.83
2023-02-03T15:29:28.654Z,5.27
2023-02-03T15:32:10.440Z,5.17
2023-02-03T15:34:43.503Z,5.50
2023-02-03T15:37:18.902Z,3.63
2023-02-03T15:39:57.020Z,3.47
2023-02-03T15:42:30.694Z,3.40
2023-02-03T15:45:02.223Z,4.33
2023-02-03T15:47:35.688Z,4.37
2023-02-03T15:50:16.733Z,4.63
2023-02-03T15:52:46.470Z,4.50
2023-02-03T15:55:22.405Z,3.87
2023-02-03T15:57:51.715Z,4.07
2023-02-03T16:00:32.917Z,5.33
2023-02-03T16:03:05.285Z,4.57
2023-02-03T16:05:34.931Z,3.87
2023-02-03T16:08:36.947Z,3.17
2023-02-03T16:11:23.405Z,4.10
2023-02-03T16:13:51.888Z,5.10
2023-02-03T16:16:23.416Z,4.40
2023-02-03T16:18:56.084Z,5.20
2023-02-03T16:21:28.931Z,3.57
2023-02-03T16:23:57.212Z,5.40
2023-02-03T16:26:26.687Z,3.43
2023-02-03T16:29:21.280Z,3.30
2023-02-03T16:32:07.729Z,3.57
2023-02-03T16:34:54.237Z,4.27
2023-02-03T16:37:43.060Z,3.07
2023-02-03T16:40:29.884Z,3.13
2023-02-03T16:43:15.397Z,2.97
2023-02-03T16:46:01.083Z,4.77
2023-02-03T16:48:46.379Z,4.27
2023-02-03T16:51:17.321Z,3.67
2023-02-03T16:53:48.209Z,3.50
2023-02-03T16:56:18.277Z,4.30
2023-02-03T16:58:46.245Z,3.43
2023-02-03T17:01:14.046Z,2.70
2023-02-03T17:03:41.898Z,3.23
2023-02-03T17:06:11.596Z,2.23
2023-02-03T17:08:42.267Z,3.00
2023-02-03T17:11:15.309Z,2.80
2023-02-03T17:13:43.571Z,3.27
2023-02-03T17:16:13.759Z,3.00
2023-02-03T17:18:41.583Z,3.17
2023-02-03T17:21:12.322Z,2.20
2023-02-03T17:23:41.459Z,2.40
2023-02-03T17:26:09.499Z,3.43
2023-02-03T17:28:39.473Z,2.83
2023-02-03T17:31:08.648Z,3.43
2023-02-03T17:33:36.428Z,3.03
2023-02-03T17:36:07.166Z,4.47
2023-02-03T17:55:15.597Z,1.53
2023-02-03T17:57:44.672Z,1.20
2023-02-03T18:00:13.380Z,1.37
2023-02-03T18:02:42.567Z,1.43
2023-02-03T18:05:11.040Z,1.30
2023-02-03T18:07:38.902Z,1.50
2023-02-03T18:10:09.561Z,1.80
2023-02-03T18:12:37.346Z,1.43
2023-02-03T18:15:06.865Z,1.40
2023-02-03T18:17:34.644Z,3.37
2023-02-03T18:20:03.996Z,1.10
2023-02-03T18:22:31.756Z,0.60
2023-02-03T18:25:00.017Z,1.00
2023-02-03T18:27:27.830Z,0.70
2023-02-03T18:29:55.567Z,1.10
2023-02-03T18:32:24.688Z,1.13
2023-02-03T18:34:54.292Z,0.60
2023-02-03T18:37:22.066Z,0.70
2023-02-03T18:39:49.935Z,0.70
2023-02-03T18:42:17.662Z,0.73
2023-02-03T18:44:45.462Z,0.90
2023-02-03T18:47:13.279Z,0.53
2023-02-03T18:49:42.418Z,0.90
2023-02-03T18:52:10.219Z,0.30
2023-02-03T18:54:37.981Z,0.80
2023-02-03T18:57:05.932Z,0.50
2023-02-03T18:59:33.686Z,0.60
2023-02-03T19:02:01.482Z,0.40
2023-02-03T19:04:29.266Z,0.60
2023-02-03T19:06:58.640Z,0.47
2023-02-03T19:09:26.366Z,0.90
2023-02-03T19:12:03.828Z,0.90
2023-02-03T19:14:34.825Z,0.87
2023-02-03T19:17:03.514Z,0.80
2023-02-03T19:19:31.667Z,0.80
2023-02-03T19:22:00.825Z,0.60
2023-02-03T19:24:31.022Z,0.67
2023-02-03T19:26:59.234Z,0.90
2023-02-03T19:29:27.028Z,0.93
2023-02-03T19:31:54.848Z,0.77
2023-02-03T19:34:22.615Z,13.77
2023-02-03T19:36:53.031Z,1.17
2023-02-03T19:39:22.153Z,1.00
2023-02-03T19:41:49.930Z,0.70
2023-02-03T19:44:17.680Z,0.90
2023-02-03T19:46:45.478Z,0.97
2023-02-03T19:49:15.129Z,0.90
2023-02-03T19:51:43.909Z,1.30
2023-02-03T19:54:13.377Z,0.90
2023-02-03T19:56:42.924Z,0.80
2023-02-03T19:59:11.551Z,1.00
2023-02-03T20:01:39.543Z,1.63
2023-02-03T20:04:08.531Z,1.30
2023-02-03T20:06:36.866Z,1.13
2023-02-03T20:09:06.240Z,1.23
2023-02-03T20:11:34.232Z,1.40
2023-02-03T20:14:03.323Z,1.07
2023-02-03T20:16:31.197Z,1.70
2023-02-03T20:19:01.046Z,1.17
2023-02-03T20:21:28.954Z,1.10
2023-02-03T20:23:56.823Z,1.20
2023-02-03T20:26:24.598Z,1.33
2023-02-03T20:28:52.746Z,1.40
2023-02-03T20:31:21.953Z,1.40
2023-02-03T20:33:50.816Z,1.90
2023-02-03T20:36:18.612Z,1.50
2023-02-03T20:38:46.444Z,2.03
2023-02-03T20:41:14.208Z,1.30
2023-02-03T20:43:42.555Z,1.67
2023-02-03T20:46:13.105Z,1.77
2023-02-03T20:48:42.644Z,1.77
2023-02-03T20:51:12.297Z,1.30
2023-02-03T20:53:41.011Z,1.30
2023-02-03T20:56:14.431Z,1.30
2023-02-03T20:58:43.911Z,1.40
2023-02-03T21:01:15.163Z,1.57
2023-02-03T21:04:02.490Z,1.40
2023-02-03T21:06:31.826Z,1.70
2023-02-03T21:09:06.746Z,2.23
2023-02-03T21:11:34.487Z,1.90
2023-02-03T21:14:05.016Z,1.97
2023-02-03T21:16:39.219Z,1.90
2023-02-03T21:19:17.687Z,1.30
2023-02-03T21:21:46.869Z,1.50
2023-02-03T21:24:25.812Z,1.23
2023-02-03T21:26:53.813Z,1.50
2023-02-03T21:29:25.494Z,4.47
2023-02-03T21:31:54.854Z,2.90
2023-02-03T21:34:29.659Z,1.23
2023-02-03T21:36:57.852Z,1.20
2023-02-03T21:39:28.259Z,1.60
2023-02-03T21:41:57.024Z,1.70
2023-02-03T21:44:31.073Z,1.83
2023-02-03T21:46:58.878Z,1.40
2023-02-03T21:49:29.840Z,1.43
2023-02-03T21:51:57.723Z,2.07
2023-02-03T21:54:30.229Z,1.47
2023-02-03T21:56:59.518Z,1.40
2023-02-03T21:59:29.926Z,1.37
2023-02-03T22:01:58.729Z,1.10
2023-02-03T22:04:29.125Z,1.30
2023-02-03T22:06:57.206Z,1.30
2023-02-03T22:09:26.383Z,1.37
2023-02-03T22:11:54.490Z,1.57
2023-02-03T22:14:22.310Z,1.60
2023-02-03T22:16:50.345Z,1.20
2023-02-03T22:19:18.416Z,1.30
2023-02-03T22:21:49.757Z,1.20
2023-02-03T22:24:17.483Z,1.40
2023-02-03T22:26:45.207Z,1.43
2023-02-03T22:29:12.977Z,1.33
2023-02-03T22:31:42.721Z,1.33
2023-02-03T22:34:10.618Z,0.80
2023-02-03T22:36:38.332Z,1.20
2023-02-03T22:39:07.418Z,1.10
2023-02-03T22:41:35.139Z,1.10
2023-02-03T22:44:03.108Z,0.90
2023-02-03T22:46:30.805Z,1.07
2023-02-03T22:49:01.507Z,1.37
2023-02-03T22:51:29.414Z,1.10
2023-02-03T22:53:57.106Z,1.13
2023-02-03T22:56:26.259Z,0.90
2023-02-03T22:58:54.029Z,0.90
2023-02-03T23:01:21.761Z,0.90
2023-02-03T23:03:49.472Z,0.90
2023-02-03T23:06:17.201Z,0.80
2023-02-03T23:08:45.331Z,1.00
2023-02-03T23:11:13.096Z,0.87
2023-02-03T23:13:42.194Z,0.80
2023-02-03T23:16:09.950Z,1.00
2023-02-03T23:18:37.750Z,0.60
2023-02-03T23:21:05.633Z,0.83
2023-02-03T23:23:33.399Z,0.80
2023-02-03T23:26:01.200Z,0.87
2023-02-03T23:28:28.930Z,0.80
2023-02-03T23:30:58.143Z,1.07
2023-02-03T23:33:25.927Z,0.73
2023-02-03T23:35:52.910Z,1.00
2023-02-03T23:38:20.618Z,0.60
2023-02-03T23:40:48.884Z,0.70
2023-02-03T23:43:16.874Z,0.80
2023-02-03T23:45:44.637Z,0.80
2023-02-03T23:48:13.798Z,0.67
2023-02-03T23:50:41.519Z,0.70
2023-02-03T23:53:09.464Z,0.60
2023-02-03T23:55:37.365Z,0.70
2023-02-03T23:58:06.001Z,0.67
